Time;durP1;ratioP1;P1;durP2;ratioP2;P2;SDS_P1;SDS_P2;PMS_P1;PMS_P2;Temp;Humidity;BMP_temperature;BMP_pressure;BME280_temperature;BME280_humidity;BME280_pressure;Samples;Min_cycle;Max_cycle;Signal;HPM_P1;HPM_P2
2022/02/07 00:01:52;;;;;;;13.75;2.05;;;3.20;99.90;;;;;;4926369;28;20051;-59
2022/02/07 00:04:23;;;;;;;22.77;3.30;;;3.20;99.90;;;;;;4908287;28;20419;-60
2022/02/07 00:06:49;;;;;;;12.97;2.43;;;3.20;99.90;;;;;;4935029;28;20055;-59
2022/02/07 00:09:16;;;;;;;15.32;2.33;;;3.20;99.90;;;;;;4937956;29;20072;-59
2022/02/07 00:11:42;;;;;;;11.35;2.67;;;3.10;99.90;;;;;;4919981;28;20056;-60
2022/02/07 00:14:08;;;;;;;11.90;2.20;;;3.00;99.90;;;;;;4933270;29;20043;-63
2022/02/07 00:16:36;;;;;;;8.48;2.08;;;3.00;99.90;;;;;;4911917;28;20052;-59
2022/02/07 00:19:05;;;;;;;8.40;2.17;;;3.00;99.90;;;;;;4924904;28;20091;-59
2022/02/07 00:21:31;;;;;;;10.50;2.40;;;3.00;99.90;;;;;;4940189;28;20060;-59
2022/02/07 00:23:58;;;;;;;12.02;1.90;;;2.90;99.90;;;;;;4901323;28;20056;-59
2022/02/07 00:26:24;;;;;;;10.20;1.83;;;2.90;99.90;;;;;;4908553;28;20044;-62
2022/02/07 00:28:51;;;;;;;12.57;2.30;;;2.90;99.90;;;;;;4920346;29;20170;-60
2022/02/07 00:31:17;;;;;;;6.10;1.52;;;2.80;99.90;;;;;;4937385;28;20546;-60
2022/02/07 00:33:43;;;;;;;11.80;1.83;;;2.80;99.90;;;;;;4919829;28;20055;-60
2022/02/07 00:36:13;;;;;;;10.82;1.42;;;2.80;99.90;;;;;;4917632;29;20095;-60
2022/02/07 00:38:44;;;;;;;8.95;1.70;;;2.80;99.90;;;;;;4942082;28;20060;-60
2022/02/07 00:41:20;;;;;;;12.50;1.83;;;2.80;99.90;;;;;;4919630;28;20055;-53
2022/02/07 00:43:53;;;;;;;11.57;2.33;;;2.80;99.90;;;;;;4905159;29;20062;-55
2022/02/07 00:46:24;;;;;;;9.20;1.85;;;2.90;99.90;;;;;;4932829;28;20055;-55
2022/02/07 00:48:51;;;;;;;14.95;2.30;;;2.90;99.90;;;;;;4909711;29;20121;-54
2022/02/07 00:51:17;;;;;;;13.52;3.17;;;3.00;99.90;;;;;;4925724;29;20055;-56
2022/02/07 00:53:43;;;;;;;15.15;2.70;;;3.20;99.90;;;;;;4923358;28;20047;-56
2022/02/07 00:56:09;;;;;;;11.98;3.03;;;3.30;99.90;;;;;;4924682;29;20044;-60
2022/02/07 00:58:36;;;;;;;18.92;3.05;;;3.30;99.90;;;;;;4908672;29;20554;-61
2022/02/07 01:01:04;;;;;;;16.27;3.00;;;3.30;99.90;;;;;;4924174;28;20661;-54
2022/02/07 01:03:36;;;;;;;21.45;4.15;;;3.30;99.90;;;;;;4935760;28;20051;-61
2022/02/07 01:06:03;;;;;;;20.75;3.25;;;3.30;99.90;;;;;;4919618;29;20654;-61
2022/02/07 01:08:45;;;;;;;18.23;4.03;;;3.30;99.90;;;;;;4940377;28;20056;-60
2022/02/07 01:12:07;;;;;;;12.68;3.13;;;3.20;99.90;;;;;;4907724;29;20048;-60
2022/02/07 01:14:17;;;;;;;18.92;3.88;;;3.20;99.90;;;;;;4908015;29;20059;-60
2022/02/07 01:17:12;;;;;;;15.15;3.28;;;3.20;99.90;;;;;;4909483;28;20052;-60
2022/02/07 01:20:51;;;;;;;13.88;3.58;;;3.20;99.90;;;;;;4918200;29;20466;-56
2022/02/07 01:55:35;;;;;;;21.10;3.28;;;3.50;99.90;;;;;;5000604;28;20173;-60
2022/02/07 01:58:05;;;;;;;13.85;2.78;;;3.60;99.90;;;;;;4908257;28;20047;-60
2022/02/07 02:00:37;;;;;;;11.57;2.87;;;3.70;99.90;;;;;;4938958;28;20048;-60
2022/02/07 02:03:03;;;;;;;13.98;2.70;;;3.70;99.90;;;;;;4923320;28;20059;-60
2022/02/07 02:05:54;;;;;;;10.50;2.47;;;3.80;99.90;;;;;;4925345;29;20621;-60
2022/02/07 02:08:28;;;;;;;15.73;2.80;;;3.80;99.90;;;;;;4920142;28;20538;-60
2022/02/07 02:10:58;;;;;;;11.57;2.28;;;3.80;99.90;;;;;;4905515;29;20060;-60
2022/02/07 02:13:48;;;;;;;14.90;2.83;;;3.80;99.90;;;;;;4916567;28;20051;-60
2022/02/07 02:16:30;;;;;;;13.48;2.35;;;3.80;99.90;;;;;;4947399;28;20055;-60
2022/02/07 02:22:36;;;;;;;18.33;2.95;;;3.80;99.90;;;;;;4949636;28;20126;-60
2022/02/07 02:45:23;;;;;;;18.17;2.97;;;3.90;99.90;;;;;;4923901;28;20050;-55
2022/02/07 02:46:46;;;;;;;20.80;3.95;;;3.90;99.90;;;;;;4922869;29;20083;-60
2022/02/07 02:49:13;;;;;;;14.40;3.47;;;4.00;99.90;;;;;;4937006;29;20527;-60
2022/02/07 02:51:40;;;;;;;26.27;3.60;;;4.00;99.90;;;;;;4920108;29;20083;-60
2022/02/07 02:54:06;;;;;;;20.95;3.10;;;4.00;99.90;;;;;;4943000;28;20044;-60
2022/02/07 02:56:34;;;;;;;22.60;3.05;;;4.10;99.90;;;;;;4907313;29;20063;-60
2022/02/07 02:59:02;;;;;;;16.55;2.97;;;4.10;99.90;;;;;;4889599;29;20190;-60
2022/02/07 03:01:33;;;;;;;19.30;3.67;;;4.20;99.90;;;;;;4922322;29;20052;-60
2022/02/07 03:04:04;;;;;;;22.77;3.22;;;4.20;99.90;;;;;;4928585;28;20054;-60
2022/02/07 03:06:30;;;;;;;25.08;4.07;;;4.20;99.90;;;;;;4921740;28;20553;-61
2022/02/07 03:08:58;;;;;;;26.02;4.35;;;4.30;99.90;;;;;;4951455;28;20105;-60
2022/02/07 03:11:26;;;;;;;19.02;2.95;;;4.30;99.90;;;;;;4938918;28;20079;-60
2022/02/07 03:13:57;;;;;;;17.98;2.88;;;4.30;99.90;;;;;;4933382;28;20055;-61
2022/02/07 03:16:38;;;;;;;18.35;3.42;;;4.30;99.90;;;;;;4920654;29;20047;-60
2022/02/07 03:19:08;;;;;;;16.60;2.95;;;4.20;99.90;;;;;;4918039;29;20403;-59
2022/02/07 03:21:34;;;;;;;21.67;3.35;;;4.20;99.90;;;;;;4921877;29;20043;-61
2022/02/07 03:24:01;;;;;;;20.75;4.00;;;4.20;99.90;;;;;;4937298;28;20167;-56
2022/02/07 03:26:30;;;;;;;20.70;4.40;;;4.20;99.90;;;;;;4948589;28;20097;-56
2022/02/07 03:28:56;;;;;;;18.67;3.72;;;4.30;99.90;;;;;;4952979;28;20108;-55
2022/02/07 03:31:23;;;;;;;23.10;4.13;;;4.30;99.90;;;;;;4926493;29;20477;-56
2022/02/07 03:33:51;;;;;;;20.00;3.65;;;4.30;99.90;;;;;;4904896;29;20150;-60
2022/02/07 03:36:19;;;;;;;24.33;3.67;;;4.20;99.90;;;;;;4923827;28;20047;-60
2022/02/07 03:38:46;;;;;;;23.63;4.15;;;4.30;99.90;;;;;;4930937;28;20481;-60
2022/02/07 03:41:13;;;;;;;20.63;3.75;;;4.30;99.90;;;;;;4954652;28;20062;-60
2022/02/07 03:43:41;;;;;;;19.85;3.63;;;4.30;99.90;;;;;;4908093;29;20051;-56
2022/02/07 03:46:07;;;;;;;25.27;5.05;;;4.30;99.90;;;;;;4943135;28;20525;-60
2022/02/07 03:48:33;;;;;;;25.80;4.40;;;4.30;99.90;;;;;;4876591;28;20047;-60
2022/02/07 03:51:00;;;;;;;22.55;3.88;;;4.30;99.90;;;;;;4936582;28;20652;-60
2022/02/07 03:53:26;;;;;;;16.33;3.03;;;4.30;99.90;;;;;;4922733;28;20114;-60
2022/02/07 03:55:57;;;;;;;16.67;3.13;;;4.30;99.90;;;;;;4908058;28;20067;-60
2022/02/07 03:58:26;;;;;;;16.33;3.03;;;4.40;99.90;;;;;;4908342;29;20588;-60
2022/02/07 04:00:54;;;;;;;19.45;3.00;;;4.40;99.90;;;;;;4936805;29;20054;-61
2022/02/07 04:03:46;;;;;;;25.55;4.20;;;4.40;99.90;;;;;;4937305;29;20383;-60
2022/02/07 04:06:16;;;;;;;15.75;3.63;;;4.30;99.90;;;;;;4956163;28;20116;-60
2022/02/07 04:08:48;;;;;;;22.92;3.60;;;4.30;99.90;;;;;;4912931;29;20102;-60
2022/02/07 04:11:41;;;;;;;25.15;4.47;;;4.30;99.90;;;;;;4901278;28;20062;-63
2022/02/07 04:14:07;;;;;;;23.58;3.75;;;4.40;99.90;;;;;;4942704;28;20039;-60
2022/02/07 04:16:38;;;;;;;17.40;3.70;;;4.40;99.90;;;;;;4943544;28;20055;-60
2022/02/07 04:19:17;;;;;;;19.95;3.90;;;4.40;99.90;;;;;;4926890;28;20043;-61
2022/02/07 04:21:45;;;;;;;29.35;5.18;;;4.40;99.90;;;;;;4930299;28;20097;-60
2022/02/07 04:24:18;;;;;;;19.77;3.80;;;4.30;99.90;;;;;;4951016;28;20851;-60
2022/02/07 04:27:10;;;;;;;;;;;4.30;99.90;;;;;;4953667;28;20156;-61
2022/02/07 04:29:37;;;;;;;19.40;3.60;;;4.30;99.90;;;;;;4944515;28;19973;-60
2022/02/07 04:32:05;;;;;;;18.13;4.45;;;4.40;99.90;;;;;;4896271;29;20043;-60
2022/02/07 04:34:33;;;;;;;20.65;3.97;;;4.40;99.90;;;;;;4926560;29;20622;-61
2022/02/07 04:36:59;;;;;;;21.80;3.97;;;4.50;99.90;;;;;;4926078;29;20047;-60
2022/02/07 04:39:26;;;;;;;28.27;4.65;;;4.50;99.90;;;;;;4924843;28;20058;-56
2022/02/07 04:41:57;;;;;;;29.48;5.65;;;4.50;99.90;;;;;;4895528;28;20506;-56
2022/02/07 04:44:35;;;;;;;25.25;5.13;;;4.40;99.90;;;;;;4929855;28;20103;-56
2022/02/07 04:50:03;;;;;;;20.00;4.35;;;4.50;99.90;;;;;;4926395;28;20078;-56
2022/02/07 04:55:32;;;;;;;23.95;4.60;;;4.50;99.90;;;;;;4915795;28;20053;-60
2022/02/07 04:58:04;;;;;;;26.27;4.65;;;4.50;99.90;;;;;;4942044;28;20098;-62
2022/02/07 05:00:45;;;;;;;20.95;5.72;;;4.60;99.90;;;;;;4925948;29;20601;-60
2022/02/07 05:03:20;;;;;;;40.28;5.20;;;4.60;99.90;;;;;;4951899;28;20134;-60
2022/02/07 05:16:15;;;;;;;28.75;5.10;;;4.80;99.90;;;;;;4954447;28;20043;-57
2022/02/07 05:18:41;;;;;;;21.50;4.95;;;4.80;99.90;;;;;;4895064;29;20101;-56
2022/02/07 05:21:23;;;;;;;23.98;4.13;;;4.80;99.90;;;;;;4926456;28;20588;-56
2022/02/07 05:24:27;;;;;;;30.20;4.53;;;4.80;99.90;;;;;;4903767;28;20067;-56
2022/02/07 05:26:56;;;;;;;27.23;5.82;;;4.70;99.90;;;;;;4910476;28;20048;-56
2022/02/07 05:29:42;;;;;;;25.23;5.13;;;4.70;99.90;;;;;;4924427;28;20440;-56
2022/02/07 05:32:40;;;;;;;22.02;4.95;;;4.60;99.90;;;;;;4943291;28;20376;-56
2022/02/07 05:35:18;;;;;;;31.75;4.93;;;4.60;99.90;;;;;;4923432;29;20047;-61
2022/02/07 05:38:16;;;;;;;28.50;5.05;;;4.50;99.90;;;;;;4913716;29;20050;-60
2022/02/07 05:40:58;;;;;;;25.08;4.90;;;4.50;99.90;;;;;;4922210;28;20044;-60
2022/02/07 05:44:00;;;;;;;19.00;3.22;;;4.70;99.90;;;;;;4895965;28;20432;-61
2022/02/07 05:46:44;;;;;;;10.82;2.92;;;4.70;99.90;;;;;;4907345;28;20089;-60
2022/02/07 05:49:27;;;;;;;12.90;2.67;;;4.60;99.90;;;;;;4939545;28;20052;-56
2022/02/07 05:52:07;;;;;;;8.82;1.77;;;4.60;99.90;;;;;;4926553;29;20122;-56
2022/02/07 05:54:33;;;;;;;9.35;1.83;;;4.40;99.90;;;;;;4914501;28;20151;-56
2022/02/07 05:57:18;;;;;;;10.70;2.38;;;4.40;99.90;;;;;;4940314;28;20043;-56
2022/02/07 05:59:51;;;;;;;7.30;2.15;;;4.30;99.90;;;;;;4939623;29;20128;-56
2022/02/07 06:02:36;;;;;;;7.40;1.80;;;4.10;99.90;;;;;;4922226;29;20290;-55
2022/02/07 06:05:09;;;;;;;8.45;1.90;;;4.00;99.90;;;;;;4928843;28;20106;-55
2022/02/07 06:07:36;;;;;;;5.88;1.35;;;3.90;99.90;;;;;;4927692;28;20047;-55
2022/02/07 06:10:04;;;;;;;11.02;1.90;;;3.90;99.90;;;;;;4912081;29;20058;-56
2022/02/07 06:12:39;;;;;;;11.60;2.30;;;3.80;99.90;;;;;;4950302;28;20503;-55
2022/02/07 06:15:07;;;;;;;9.35;2.05;;;3.80;99.90;;;;;;4955473;28;20043;-56
2022/02/07 06:17:35;;;;;;;11.93;2.15;;;3.70;99.90;;;;;;4926630;29;20077;-57
2022/02/07 06:20:01;;;;;;;13.20;2.20;;;3.70;99.90;;;;;;4918222;29;20132;-58
2022/02/07 06:22:29;;;;;;;12.60;2.63;;;3.60;99.90;;;;;;4907705;29;20059;-57
2022/02/07 06:24:55;;;;;;;16.33;2.30;;;3.60;99.90;;;;;;4925250;28;20519;-57
2022/02/07 06:27:22;;;;;;;19.08;2.88;;;3.50;99.90;;;;;;4916323;28;20047;-57
2022/02/07 06:29:48;;;;;;;18.55;2.78;;;3.40;99.90;;;;;;4939928;28;20048;-58
2022/02/07 06:32:15;;;;;;;12.00;2.55;;;3.40;99.90;;;;;;4944603;28;20040;-57
2022/02/07 06:34:42;;;;;;;17.85;3.30;;;3.40;99.90;;;;;;4970649;28;20057;-57
2022/02/07 06:37:13;;;;;;;21.02;4.22;;;3.40;99.90;;;;;;4990847;28;20052;-57
2022/02/07 06:39:40;;;;;;;15.45;3.83;;;3.30;99.90;;;;;;4985652;28;20056;-61
2022/02/07 06:42:07;;;;;;;22.15;4.55;;;3.40;99.90;;;;;;4995528;28;20081;-57
2022/02/07 06:44:33;;;;;;;18.55;4.18;;;3.30;99.90;;;;;;4934122;28;20139;-57
2022/02/07 06:47:01;;;;;;;20.05;4.18;;;3.30;99.90;;;;;;4986245;28;20052;-57
2022/02/07 06:49:30;;;;;;;18.98;4.80;;;3.40;99.90;;;;;;4983901;28;20117;-57
2022/02/07 06:51:57;;;;;;;24.25;4.47;;;3.40;99.90;;;;;;4971458;28;20047;-57
2022/02/07 06:54:23;;;;;;;20.38;3.70;;;3.40;99.90;;;;;;4955127;28;20044;-56
2022/02/07 06:56:52;;;;;;;23.92;4.75;;;3.40;99.90;;;;;;4982909;28;20082;-61
2022/02/07 06:59:19;;;;;;;16.35;2.92;;;3.40;99.90;;;;;;4979160;28;20304;-61
2022/02/07 07:01:50;;;;;;;;;;;3.50;99.90;;;;;;4915867;28;20101;-61
2022/02/07 07:04:17;;;;;;;22.17;3.35;;;3.60;99.90;;;;;;4917106;29;19923;-62
2022/02/07 07:06:46;;;;;;;15.20;3.85;;;3.60;99.90;;;;;;4893661;28;20135;-61
2022/02/07 07:09:13;;;;;;;22.25;3.30;;;3.70;99.90;;;;;;4942555;28;20090;-61
2022/02/07 07:11:42;;;;;;;20.45;3.50;;;3.70;99.90;;;;;;4902051;29;20142;-61
2022/02/07 07:16:50;;;;;;;22.35;4.03;;;3.80;99.90;;;;;;4913866;28;20435;-61
2022/02/07 07:19:20;;;;;;;21.17;3.22;;;3.80;99.90;;;;;;4958099;28;20047;-60
2022/02/07 07:21:49;;;;;;;16.65;3.55;;;3.80;99.90;;;;;;4944910;28;20082;-62
2022/02/07 07:24:17;;;;;;;20.30;3.83;;;3.70;99.90;;;;;;4942262;28;20064;-62
2022/02/07 07:26:44;;;;;;;18.85;3.40;;;3.70;99.90;;;;;;4916733;28;20620;-62
2022/02/07 07:29:18;;;;;;;15.02;3.72;;;3.70;99.90;;;;;;4930614;28;20569;-61
2022/02/07 07:31:55;;;;;;;19.02;3.65;;;3.60;99.90;;;;;;4927850;28;20055;-61
2022/02/07 07:34:24;;;;;;;19.17;3.13;;;3.60;99.90;;;;;;4927118;28;20061;-57
2022/02/07 07:36:54;;;;;;;15.38;3.25;;;3.60;99.90;;;;;;4926959;28;20385;-57
2022/02/07 07:39:20;;;;;;;22.63;4.28;;;3.60;99.90;;;;;;4914289;28;20447;-56
2022/02/07 07:41:49;;;;;;;18.70;3.17;;;3.60;99.90;;;;;;4927456;28;20085;-61
2022/02/07 07:44:30;;;;;;;15.73;3.17;;;3.60;99.90;;;;;;4963675;28;20052;-61
2022/02/07 07:47:30;;;;;;;20.58;3.58;;;3.70;99.90;;;;;;4932663;28;20554;-61
2022/02/07 07:50:23;;;;;;;21.98;3.92;;;3.70;99.90;;;;;;4930421;28;20054;-61
2022/02/07 07:53:09;;;;;;;24.33;3.58;;;3.70;99.90;;;;;;4931749;28;20098;-61
2022/02/07 08:03:49;;;;;;;17.33;4.22;;;4.10;99.90;;;;;;4962946;28;20061;-60
2022/02/07 08:06:24;;;;;;;22.90;4.18;;;4.10;99.90;;;;;;4964022;28;20048;-62
2022/02/07 08:09:18;;;;;;;25.40;5.05;;;4.20;99.90;;;;;;4972383;28;20121;-61
2022/02/07 08:11:46;;;;;;;28.90;4.40;;;4.30;99.90;;;;;;4949995;28;21332;-59
2022/02/07 08:14:12;;;;;;;22.83;4.15;;;4.30;99.90;;;;;;4933617;28;20048;-61
2022/02/07 08:16:39;;;;;;;29.48;6.43;;;4.50;99.90;;;;;;4934188;28;20085;-57
2022/02/07 08:19:07;;;;;;;30.08;4.78;;;4.50;99.90;;;;;;4944532;28;20126;-61
2022/02/07 08:21:35;;;;;;;26.48;6.25;;;4.60;99.90;;;;;;4973761;28;20086;-56
2022/02/07 08:24:02;;;;;;;30.70;5.40;;;4.70;99.90;;;;;;4955147;28;20063;-57
2022/02/07 08:26:28;;;;;;;25.65;5.32;;;4.80;99.90;;;;;;4965993;28;20157;-56
2022/02/07 08:28:54;;;;;;;28.05;5.22;;;5.00;99.90;;;;;;4939352;28;20051;-57
2022/02/07 08:31:22;;;;;;;27.02;5.22;;;5.30;99.90;;;;;;4931725;28;20084;-57
2022/02/07 08:33:48;;;;;;;26.95;5.32;;;5.40;99.90;;;;;;4924083;28;20165;-62
2022/02/07 08:36:16;;;;;;;22.95;4.18;;;5.40;99.90;;;;;;4963151;28;20054;-61
2022/02/07 08:38:42;;;;;;;25.00;5.78;;;5.30;99.90;;;;;;4982873;28;20059;-61
2022/02/07 08:41:09;;;;;;;29.40;5.25;;;5.30;99.90;;;;;;4967550;28;20122;-57
2022/02/07 08:43:35;;;;;;;32.63;5.30;;;5.40;99.90;;;;;;4955435;28;20084;-60
2022/02/07 08:46:01;;;;;;;29.83;5.75;;;5.60;99.90;;;;;;4969960;28;20262;-62
2022/02/07 08:48:27;;;;;;;25.95;5.55;;;6.00;99.90;;;;;;4959922;28;20043;-62
2022/02/07 08:50:55;;;;;;;22.02;5.30;;;6.30;99.90;;;;;;4962834;28;20050;-57
2022/02/07 08:53:24;;;;;;;19.58;4.47;;;6.80;99.90;;;;;;4963541;28;20114;-62
2022/02/07 08:55:52;;;;;;;21.52;4.82;;;7.30;99.90;;;;;;5000791;28;20052;-63
2022/02/07 08:58:22;;;;;;;30.83;5.68;;;7.40;99.90;;;;;;4952021;28;20045;-62
2022/02/07 09:00:54;;;;;;;29.45;5.28;;;7.60;99.90;;;;;;4973633;28;20845;-58
2022/02/07 09:11:14;;;;;;;26.80;6.13;;;8.80;99.90;;;;;;4950221;28;20406;-57
2022/02/07 09:13:44;;;;;;;26.08;5.50;;;8.80;99.90;;;;;;4972501;28;20533;-57
2022/02/07 09:18:44;;;;;;;22.23;4.88;;;9.30;99.90;;;;;;4957081;28;20041;-57
2022/02/07 09:21:12;;;;;;;21.45;4.72;;;9.40;99.90;;;;;;4962376;28;20415;-63
2022/02/07 09:23:40;;;;;;;21.80;5.07;;;9.50;99.90;;;;;;4970076;28;20084;-62
2022/02/07 09:26:07;;;;;;;22.65;4.45;;;9.50;99.90;;;;;;4963769;28;20101;-62
2022/02/07 09:28:33;;;;;;;23.98;5.05;;;9.60;99.90;;;;;;4967176;28;20407;-62
2022/02/07 09:31:00;;;;;;;19.35;4.60;;;9.60;99.90;;;;;;4974468;28;20053;-62
2022/02/07 09:33:26;;;;;;;24.52;5.45;;;9.80;99.90;;;;;;4976576;28;20127;-62
2022/02/07 09:35:54;;;;;;;24.75;5.88;;;10.10;99.90;;;;;;4979749;28;20055;-62
2022/02/07 09:38:21;;;;;;;24.33;5.18;;;10.10;99.90;;;;;;4979750;28;20511;-62
2022/02/07 09:40:52;;;;;;;25.48;5.40;;;10.30;99.90;;;;;;4962089;28;20113;-62
2022/02/07 09:43:20;;;;;;;23.50;5.60;;;10.40;99.90;;;;;;4965757;28;20047;-62
2022/02/07 09:45:50;;;;;;;26.08;6.05;;;10.50;99.90;;;;;;4953973;28;20059;-62
2022/02/07 09:48:17;;;;;;;23.83;5.22;;;10.70;99.90;;;;;;4982308;28;20553;-57
2022/02/07 09:50:44;;;;;;;26.48;6.10;;;10.40;99.90;;;;;;4976035;28;20045;-57
2022/02/07 09:53:11;;;;;;;25.23;5.38;;;10.00;99.90;;;;;;4962544;28;20457;-57
2022/02/07 09:55:38;;;;;;;27.08;5.10;;;10.40;99.90;;;;;;4963937;28;20137;-57
2022/02/07 09:58:04;;;;;;;27.52;5.68;;;10.70;99.90;;;;;;4976289;28;20059;-57
2022/02/07 10:00:36;;;;;;;25.60;5.75;;;10.70;99.90;;;;;;4958559;28;20088;-57
2022/02/07 10:03:14;;;;;;;25.75;5.43;;;11.00;99.90;;;;;;4937895;28;20047;-57
2022/02/07 10:08:21;;;;;;;28.65;5.35;;;10.00;99.90;;;;;;4975922;28;20059;-57
2022/02/07 10:11:21;;;;;;;25.08;4.70;;;9.90;99.90;;;;;;4925267;28;20512;-57
2022/02/07 10:17:32;;;;;;;21.88;5.35;;;10.20;99.90;;;;;;4981278;28;20100;-62
2022/02/07 10:39:26;;;;;;;21.50;4.38;;;11.50;99.90;;;;;;4934446;28;20121;-62
2022/02/07 10:44:38;;;;;;;20.17;3.90;;;12.40;99.90;;;;;;4936276;28;20086;-62
2022/02/07 10:47:11;;;;;;;19.35;4.40;;;12.30;99.90;;;;;;4918833;28;20082;-63
2022/02/07 10:50:07;;;;;;;15.88;4.05;;;12.60;99.90;;;;;;4917747;28;20043;-62
2022/02/07 10:52:50;;;;;;;21.45;5.47;;;12.80;99.90;;;;;;4912182;28;20055;-63
2022/02/07 10:55:21;;;;;;;23.85;5.32;;;12.90;99.90;;;;;;4933025;28;20051;-62
2022/02/07 10:57:48;;;;;;;19.07;4.30;;;12.70;99.90;;;;;;4918432;28;20169;-62
2022/02/07 11:00:15;;;;;;;18.92;4.20;;;12.50;99.90;;;;;;4945823;28;20311;-62
2022/02/07 11:02:51;;;;;;;22.98;4.68;;;11.80;99.90;;;;;;4941530;28;20048;-62
2022/02/07 11:05:19;;;;;;;21.90;5.10;;;11.70;99.90;;;;;;4927048;28;20048;-62
2022/02/07 11:07:46;;;;;;;26.63;5.90;;;10.90;99.90;;;;;;4962202;28;20367;-63
2022/02/07 11:10:28;;;;;;;20.10;4.20;;;11.10;99.90;;;;;;4937033;28;20066;-62
2022/02/07 11:16:04;;;;;;;19.25;4.40;;;11.00;99.90;;;;;;4916071;28;20051;-61
2022/02/07 11:30:19;;;;;;;22.10;4.50;;;10.60;99.90;;;;;;4939481;28;20046;-57
2022/02/07 11:32:48;;;;;;;18.52;3.55;;;10.70;99.90;;;;;;4942165;28;20193;-56
2022/02/07 11:35:23;;;;;;;18.33;4.13;;;10.60;99.90;;;;;;4939657;28;20039;-56
2022/02/07 11:38:01;;;;;;;24.73;5.05;;;9.60;99.90;;;;;;4957491;28;20044;-56
2022/02/07 11:40:29;;;;;;;25.15;5.00;;;9.20;99.90;;;;;;4917013;28;20042;-61
2022/02/07 11:43:13;;;;;;;20.98;4.25;;;8.70;99.90;;;;;;4937834;28;20421;-61
2022/02/07 11:46:03;;;;;;;22.73;5.03;;;8.90;99.90;;;;;;4937149;28;20117;-61
2022/02/07 11:48:46;;;;;;;24.00;5.22;;;8.90;99.90;;;;;;4922500;28;20764;-61
2022/02/07 11:51:18;;;;;;;22.77;4.22;;;9.20;99.90;;;;;;4957651;28;20465;-61
2022/02/07 11:53:54;;;;;;;24.37;5.83;;;9.30;99.90;;;;;;4966622;28;20080;-61
2022/02/07 11:56:44;;;;;;;22.23;4.88;;;9.60;99.90;;;;;;4965432;28;20041;-61
2022/02/07 12:02:06;;;;;;;20.70;4.45;;;10.70;99.90;;;;;;4948523;28;20153;-56
2022/02/07 12:04:43;;;;;;;21.55;4.72;;;11.20;99.90;;;;;;4981350;28;20829;-57
2022/02/07 12:07:15;;;;;;;21.65;5.03;;;12.10;99.90;;;;;;4963431;28;20480;-58
2022/02/07 12:10:03;;;;;;;18.83;3.65;;;12.50;95.60;;;;;;4976057;28;20045;-57
2022/02/07 12:12:49;;;;;;;11.82;3.67;;;11.50;78.10;;;;;;4942943;28;20126;-56
2022/02/07 12:15:26;;;;;;;20.85;3.78;;;11.70;99.90;;;;;;4985561;28;20045;-56
2022/02/07 12:17:57;;;;;;;17.52;3.42;;;11.10;99.90;;;;;;4968366;28;20450;-61
2022/02/07 12:20:30;;;;;;;17.75;3.75;;;10.90;99.90;;;;;;4961489;28;20511;-56
2022/02/07 12:23:04;;;;;;;14.95;3.25;;;11.30;99.90;;;;;;4973818;28;20059;-56
2022/02/07 12:25:48;;;;;;;15.85;3.75;;;10.60;99.90;;;;;;4936828;28;20594;-56
2022/02/07 12:28:34;;;;;;;14.00;3.42;;;9.90;99.90;;;;;;4963863;28;20059;-56
2022/02/07 12:33:35;;;;;;;15.85;3.80;;;8.90;99.90;;;;;;4936503;28;20069;-55
2022/02/07 12:36:02;;;;;;;17.85;3.65;;;8.70;99.90;;;;;;4917581;28;20039;-56
2022/02/07 12:38:30;;;;;;;17.33;6.78;;;9.60;99.90;;;;;;4940103;28;20054;-56
2022/02/07 12:40:57;;;;;;;12.68;2.92;;;10.60;99.90;;;;;;4941020;28;20120;-56
2022/02/07 12:43:23;;;;;;;16.67;3.83;;;11.20;99.90;;;;;;4937644;28;20067;-56
2022/02/07 12:45:50;;;;;;;16.10;3.45;;;10.50;99.90;;;;;;4945703;28;20051;-57
2022/02/07 12:48:22;;;;;;;24.02;4.38;;;10.00;99.90;;;;;;4928807;28;20130;-56
2022/02/07 12:50:52;;;;;;;14.38;3.75;;;9.50;99.90;;;;;;4946011;28;20062;-61
2022/02/07 12:53:20;;;;;;;17.90;4.18;;;9.30;99.90;;;;;;4939763;28;20577;-61
2022/02/07 12:55:55;;;;;;;18.27;3.63;;;9.10;99.90;;;;;;4944057;28;20059;-61
2022/02/07 12:58:43;;;;;;;14.73;3.17;;;9.10;99.90;;;;;;4950801;28;20403;-61
2022/02/07 13:01:42;;;;;;;21.70;4.35;;;9.50;99.90;;;;;;4938938;28;20060;-61
2022/02/07 13:04:12;;;;;;;22.50;4.60;;;10.10;99.90;;;;;;4955693;28;20135;-56
2022/02/07 13:06:43;;;;;;;15.20;3.88;;;10.40;99.90;;;;;;4981929;28;20079;-56
2022/02/07 13:09:21;;;;;;;16.58;3.85;;;10.00;99.90;;;;;;4971338;28;20080;-56
2022/02/07 13:12:01;;;;;;;11.43;3.22;;;9.50;99.90;;;;;;4980269;28;20058;-61
2022/02/07 13:14:30;;;;;;;16.73;3.33;;;9.80;99.90;;;;;;4948319;28;20073;-60
2022/02/07 13:16:56;;;;;;;19.65;3.42;;;10.80;99.90;;;;;;4970121;28;20051;-61
2022/02/07 13:19:25;;;;;;;15.68;3.30;;;11.20;99.90;;;;;;4943110;28;20138;-61
2022/02/07 13:21:53;;;;;;;16.58;3.55;;;11.90;99.90;;;;;;4997623;28;20046;-61
2022/02/07 13:24:23;;;;;;;14.98;3.55;;;12.20;89.20;;;;;;4945656;28;20134;-61
2022/02/07 13:26:51;;;;;;;18.45;3.72;;;12.60;88.30;;;;;;4944520;28;20565;-61
2022/02/07 13:29:26;;;;;;;14.07;3.60;;;13.10;84.40;;;;;;5058994;28;20120;-62
2022/02/07 13:31:58;;;;;;;14.45;2.75;;;13.30;71.60;;;;;;4930329;28;20047;-60
2022/02/07 13:34:25;;;;;;;;;;;12.70;67.70;;;;;;4943550;28;20073;-61
2022/02/07 13:36:53;;;;;;;15.57;3.65;;;11.50;67.90;;;;;;4949706;28;20247;-61
2022/02/07 13:39:20;;;;;;;12.80;2.60;;;11.60;76.40;;;;;;4941626;28;20042;-61
2022/02/07 13:42:01;;;;;;;15.57;3.22;;;12.00;77.30;;;;;;4963446;28;20047;-62
2022/02/07 13:44:28;;;;;;;12.75;2.58;;;12.70;77.10;;;;;;4965756;28;20051;-64
2022/02/07 13:47:01;;;;;;;13.82;3.58;;;12.50;80.70;;;;;;4951653;28;20130;-62
2022/02/07 13:49:27;;;;;;;14.88;2.92;;;12.00;79.20;;;;;;5008487;28;20049;-62
2022/02/07 13:51:54;;;;;;;12.98;3.05;;;11.00;91.40;;;;;;4966933;28;20047;-62
2022/02/07 13:54:31;;;;;;;12.15;2.75;;;10.20;99.90;;;;;;4942293;28;20109;-57
2022/02/07 13:57:00;;;;;;;11.05;2.40;;;9.90;99.90;;;;;;4947529;28;20071;-59
2022/02/07 13:59:35;;;;;;;12.80;3.00;;;9.40;99.90;;;;;;4944222;28;20074;-57
2022/02/07 14:02:01;;;;;;;14.75;3.03;;;9.10;99.90;;;;;;4965816;28;20498;-57
2022/02/07 14:04:30;;;;;;;14.98;3.10;;;9.20;99.90;;;;;;4990726;28;20554;-57
2022/02/07 14:07:08;;;;;;;16.27;3.58;;;8.90;99.90;;;;;;4978530;28;20043;-57
2022/02/07 14:09:35;;;;;;;16.83;2.85;;;8.60;99.90;;;;;;4929927;28;20047;-58
2022/02/07 14:12:03;;;;;;;14.23;3.13;;;8.50;99.90;;;;;;4947444;28;20502;-58
2022/02/07 14:14:30;;;;;;;16.95;3.97;;;8.30;99.90;;;;;;4950901;28;20074;-57
2022/02/07 14:16:56;;;;;;;16.13;3.78;;;8.20;99.90;;;;;;4986418;28;20542;-57
2022/02/07 14:19:41;;;;;;;18.40;2.90;;;8.00;99.90;;;;;;4944847;28;20063;-57
2022/02/07 14:22:09;;;;;;;14.40;3.03;;;8.10;99.90;;;;;;4955648;28;20101;-57
2022/02/07 14:24:37;;;;;;;12.75;3.40;;;8.00;99.90;;;;;;4953236;28;20157;-57
2022/02/07 14:27:05;;;;;;;12.07;3.58;;;8.30;99.90;;;;;;4965022;28;20055;-57
2022/02/07 14:29:31;;;;;;;18.73;3.67;;;8.60;99.90;;;;;;4953827;28;20050;-57
2022/02/07 14:31:57;;;;;;;16.90;4.05;;;9.10;99.90;;;;;;4956758;28;20047;-61
2022/02/07 14:34:24;;;;;;;14.90;3.05;;;9.90;99.90;;;;;;4955244;28;20090;-61
2022/02/07 14:36:50;;;;;;;18.67;3.72;;;10.10;99.90;;;;;;4942155;28;20063;-61
2022/02/07 14:39:16;;;;;;;16.48;3.03;;;10.40;99.90;;;;;;4955657;28;20503;-61
2022/02/07 14:41:46;;;;;;;15.07;3.38;;;10.50;99.90;;;;;;4964007;28;20059;-61
2022/02/07 14:44:20;;;;;;;14.23;3.33;;;10.10;99.90;;;;;;4957927;28;20433;-61
2022/02/07 14:47:02;;;;;;;14.82;3.25;;;9.80;99.90;;;;;;4969082;28;20492;-61
2022/02/07 14:49:29;;;;;;;14.57;3.13;;;9.70;99.90;;;;;;4942089;28;20507;-61
2022/02/07 14:51:55;;;;;;;12.32;2.25;;;9.50;99.90;;;;;;4943629;28;20156;-60
2022/02/07 14:54:21;;;;;;;16.70;2.78;;;9.30;99.90;;;;;;4970337;28;20083;-61
2022/02/07 14:56:47;;;;;;;13.40;2.50;;;9.30;99.90;;;;;;4956867;28;20462;-61
2022/02/07 14:59:16;;;;;;;11.57;2.80;;;9.30;99.90;;;;;;4952260;28;20052;-61
2022/02/07 15:01:44;;;;;;;12.10;2.75;;;9.20;99.90;;;;;;4953607;28;20066;-61
2022/02/07 15:04:11;;;;;;;15.40;3.13;;;8.60;99.90;;;;;;4953568;28;20196;-61
2022/02/07 15:06:37;;;;;;;10.82;2.83;;;8.40;99.90;;;;;;4980256;28;20058;-60
2022/02/07 15:09:03;;;;;;;13.43;2.70;;;8.10;99.90;;;;;;4946329;28;20036;-60
2022/02/07 15:11:29;;;;;;;9.40;2.72;;;8.00;99.90;;;;;;4940850;28;20047;-61
2022/02/07 15:13:55;;;;;;;16.40;3.28;;;7.90;99.90;;;;;;4960046;28;20051;-62
2022/02/07 15:16:22;;;;;;;17.10;3.30;;;7.80;99.90;;;;;;4955952;28;20406;-61
2022/02/07 15:18:48;;;;;;;12.77;2.97;;;7.80;99.90;;;;;;4954977;28;20126;-60
2022/02/07 15:21:14;;;;;;;11.80;2.72;;;7.90;99.90;;;;;;4943466;28;20047;-61
2022/02/07 15:23:41;;;;;;;15.40;2.63;;;7.80;99.90;;;;;;4945606;28;20059;-61
2022/02/07 15:26:08;;;;;;;12.98;2.58;;;7.80;99.90;;;;;;4956579;28;20055;-61
2022/02/07 15:28:35;;;;;;;14.88;2.75;;;7.80;99.90;;;;;;4947258;28;20047;-61
2022/02/07 15:31:03;;;;;;;9.93;2.22;;;7.70;99.90;;;;;;4940591;28;20074;-59